Time;durP1;ratioP1;P1;durP2;ratioP2;P2;SDS_P1;SDS_P2;PMS_P1;PMS_P2;Temp;Humidity;BMP_temperature;BMP_pressure;BME280_temperature;BME280_humidity;BME280_pressure;Samples;Min_cycle;Max_cycle;Signal;HPM_P1;HPM_P2
2021/10/15 00:00:20;;;;;;;74.55;43.72;;;154.40;1945.60;;;;;;4937770;29;20144;-69
2021/10/15 00:02:46;;;;;;;70.30;42.22;;;154.50;1971.20;;;;;;4937981;29;20047;-63
2021/10/15 00:05:12;;;;;;;75.57;44.08;;;154.30;1920.00;;;;;;4938058;29;20031;-62
2021/10/15 00:07:38;;;;;;;89.65;51.70;;;154.20;1920.00;;;;;;4937898;29;20137;-74
2021/10/15 00:10:05;;;;;;;98.05;49.40;;;154.20;1971.20;;;;;;4937649;29;20093;-62
2021/10/15 00:12:31;;;;;;;91.60;48.25;;;154.30;1971.20;;;;;;4937500;29;20032;-62
2021/10/15 00:14:56;;;;;;;114.50;51.53;;;154.20;1945.60;;;;;;4937596;29;20044;-62
2021/10/15 00:17:22;;;;;;;110.50;54.75;;;154.20;1920.00;;;;;;4937491;29;20396;-62
2021/10/15 00:19:48;;;;;;;103.93;53.85;;;154.10;1971.20;;;;;;4936918;29;20060;-63
2021/10/15 00:22:14;;;;;;;107.75;52.88;;;154.10;1971.20;;;;;;4937490;29;20044;-62
2021/10/15 00:24:40;;;;;;;100.10;50.60;;;154.00;1945.60;;;;;;4937212;29;20044;-72
2021/10/15 00:27:05;;;;;;;98.60;50.35;;;154.10;1971.20;;;;;;4937056;29;20047;-73
2021/10/15 00:29:31;;;;;;;92.60;46.95;;;154.10;1971.20;;;;;;4937234;29;20091;-68
2021/10/15 00:31:57;;;;;;;90.22;45.47;;;154.00;1945.60;;;;;;4937617;29;20137;-62
2021/10/15 00:34:22;;;;;;;86.50;42.67;;;154.10;1920.00;;;;;;4937380;29;20513;-74
2021/10/15 00:36:49;;;;;;;83.30;40.47;;;154.00;1920.00;;;;;;4937068;29;20500;-73
2021/10/15 00:39:15;;;;;;;105.18;46.28;;;154.00;1894.40;;;;;;4937393;29;20116;-73
2021/10/15 00:41:40;;;;;;;105.22;47.75;;;154.00;1971.20;;;;;;4937095;29;20118;-62
2021/10/15 00:44:09;;;;;;;100.15;44.30;;;154.00;1996.80;;;;;;4936892;29;20122;-62
2021/10/15 00:46:36;;;;;;;109.00;46.65;;;154.20;2022.40;;;;;;4937023;29;20048;-62
2021/10/15 00:49:07;;;;;;;102.03;43.53;;;154.20;1996.80;;;;;;4936736;29;20044;-72
2021/10/15 00:51:33;;;;;;;88.43;43.33;;;154.40;1920.00;;;;;;4936985;29;20397;-62
2021/10/15 00:54:00;;;;;;;94.57;43.15;;;154.30;1971.20;;;;;;4937005;29;20036;-74
2021/10/15 00:56:29;;;;;;;90.65;41.90;;;154.30;1971.20;;;;;;4936795;29;20036;-74
2021/10/15 00:58:55;;;;;;;88.47;42.58;;;154.50;1920.00;;;;;;4936767;29;20032;-62
2021/10/15 01:01:21;;;;;;;86.28;43.00;;;154.50;1945.60;;;;;;4936836;29;20394;-63
2021/10/15 01:03:47;;;;;;;83.35;41.38;;;179.20;1945.60;;;;;;4937183;29;20039;-62
2021/10/15 01:06:13;;;;;;;76.70;38.67;;;179.20;1894.40;;;;;;4936964;29;20027;-63
2021/10/15 01:08:48;;;;;;;79.20;39.40;;;179.30;1945.60;;;;;;4936848;29;20039;-74
2021/10/15 01:11:15;;;;;;;68.45;35.55;;;179.40;1894.40;;;;;;4936776;29;20027;-74
2021/10/15 01:13:42;;;;;;;53.58;31.45;;;179.20;1920.00;;;;;;4936691;29;20115;-70
2021/10/15 01:16:09;;;;;;;51.67;28.52;;;179.20;1945.60;;;;;;4936748;29;20066;-72
2021/10/15 01:18:37;;;;;;;49.63;29.08;;;179.30;1894.40;;;;;;4936532;29;20035;-74
2021/10/15 01:21:05;;;;;;;46.45;28.73;;;154.40;1971.20;;;;;;4936526;29;20035;-74
2021/10/15 01:23:31;;;;;;;43.20;25.70;;;179.20;1945.60;;;;;;4919168;29;20044;-67
2021/10/15 01:25:57;;;;;;;44.97;29.15;;;179.20;1894.40;;;;;;4936572;29;20100;-63
2021/10/15 01:28:26;;;;;;;46.28;27.05;;;179.20;1971.20;;;;;;4936415;29;20059;-62
2021/10/15 01:30:53;;;;;;;37.22;24.02;;;179.30;1945.60;;;;;;4935395;29;20055;-75
2021/10/15 01:33:19;;;;;;;40.55;24.40;;;179.20;1920.00;;;;;;4936573;29;20055;-75
2021/10/15 01:35:45;;;;;;;35.10;22.05;;;154.50;1971.20;;;;;;4936590;29;20091;-63
2021/10/15 01:38:11;;;;;;;43.50;23.05;;;179.30;1945.60;;;;;;4936562;29;20083;-75
2021/10/15 01:40:39;;;;;;;35.80;22.38;;;179.20;1971.20;;;;;;4936417;29;20040;-73
2021/10/15 01:43:05;;;;;;;36.38;21.70;;;179.20;1996.80;;;;;;4936257;29;20051;-74
2021/10/15 01:45:33;;;;;;;36.67;22.75;;;179.30;1920.00;;;;;;4936275;29;20382;-74
2021/10/15 01:48:00;;;;;;;38.50;22.40;;;179.20;1996.80;;;;;;4936260;29;20036;-74
2021/10/15 01:50:27;;;;;;;36.40;23.10;;;179.30;1996.80;;;;;;4936502;29;20059;-75
2021/10/15 01:52:54;;;;;;;36.83;23.05;;;179.30;1945.60;;;;;;4936303;29;20390;-75
2021/10/15 01:55:20;;;;;;;38.10;23.65;;;154.50;2022.40;;;;;;4936096;29;20040;-63
2021/10/15 01:57:47;;;;;;;35.65;22.42;;;179.30;1996.80;;;;;;4935826;29;20046;-69
2021/10/15 02:00:14;;;;;;;39.08;23.40;;;179.20;1971.20;;;;;;4936303;29;20414;-75
2021/10/15 02:02:42;;;;;;;34.55;22.23;;;179.20;2022.40;;;;;;4935875;29;20494;-75
2021/10/15 02:05:10;;;;;;;38.65;23.08;;;179.30;1945.60;;;;;;4936173;29;20377;-62
2021/10/15 02:07:36;;;;;;;39.03;23.70;;;179.20;1971.20;;;;;;4936303;29;20115;-62
2021/10/15 02:10:03;;;;;;;36.72;23.25;;;179.20;1996.80;;;;;;4936308;29;20449;-75
2021/10/15 02:12:28;;;;;;;38.20;23.42;;;179.30;1920.00;;;;;;4936293;29;20036;-75
2021/10/15 02:14:54;;;;;;;38.83;24.15;;;179.20;1996.80;;;;;;4936088;29;20032;-75
2021/10/15 02:17:19;;;;;;;40.10;24.67;;;179.20;1996.80;;;;;;4936130;29;20071;-62
2021/10/15 02:19:45;;;;;;;36.55;22.90;;;179.30;1945.60;;;;;;4935980;29;20466;-67
2021/10/15 02:22:11;;;;;;;37.10;23.23;;;179.20;1996.80;;;;;;4936021;29;20103;-62
2021/10/15 02:24:37;;;;;;;37.30;23.10;;;179.30;1945.60;;;;;;4935825;29;20107;-62
2021/10/15 02:27:03;;;;;;;45.22;25.95;;;179.20;1945.60;;;;;;4936024;29;20035;-75
2021/10/15 02:29:29;;;;;;;40.85;23.20;;;179.20;1996.80;;;;;;4935653;29;20134;-65
2021/10/15 02:31:55;;;;;;;38.67;24.58;;;179.30;1971.20;;;;;;4935982;29;20047;-75
2021/10/15 02:34:21;;;;;;;37.78;23.98;;;179.20;1971.20;;;;;;4935849;29;20040;-69
2021/10/15 02:36:47;;;;;;;36.25;22.77;;;154.50;2022.40;;;;;;4935891;29;20036;-72
2021/10/15 02:39:13;;;;;;;37.45;23.35;;;179.20;1971.20;;;;;;4935852;29;20043;-75
2021/10/15 02:41:40;;;;;;;36.97;24.17;;;179.20;1971.20;;;;;;4935726;29;20103;-75
2021/10/15 02:44:11;;;;;;;36.25;22.50;;;179.20;1996.80;;;;;;4938784;29;20039;-72
2021/10/15 02:46:38;;;;;;;36.22;23.65;;;179.30;1971.20;;;;;;4939391;29;20035;-63
2021/10/15 02:49:05;;;;;;;39.92;25.23;;;179.20;1996.80;;;;;;4939331;29;20119;-75
2021/10/15 02:51:31;;;;;;;43.13;23.60;;;179.20;1996.80;;;;;;4939035;29;20181;-74
2021/10/15 02:53:56;;;;;;;37.95;24.02;;;179.30;1945.60;;;;;;4939160;29;20043;-71
2021/10/15 02:56:22;;;;;;;37.42;24.30;;;179.20;1996.80;;;;;;4939045;29;20067;-62
2021/10/15 02:58:48;;;;;;;37.28;22.42;;;179.20;1996.80;;;;;;4939080;29;20039;-74
2021/10/15 03:01:14;;;;;;;38.88;24.27;;;179.20;1945.60;;;;;;4939081;29;20489;-62
2021/10/15 03:03:40;;;;;;;40.58;23.23;;;154.50;1996.80;;;;;;4939077;29;20059;-72
2021/10/15 03:06:06;;;;;;;34.75;21.52;;;179.30;2048.00;;;;;;4938962;29;20533;-75
2021/10/15 03:08:32;;;;;;;34.00;21.30;;;179.30;1996.80;;;;;;4938901;29;20048;-75
2021/10/15 03:10:58;;;;;;;44.63;21.13;;;179.20;2022.40;;;;;;4938569;29;20043;-74
2021/10/15 03:13:24;;;;;;;36.28;20.33;;;179.20;2048.00;;;;;;4938587;29;20470;-62
2021/10/15 03:15:49;;;;;;;34.20;21.35;;;179.20;1996.80;;;;;;4938244;29;20047;-72
2021/10/15 03:18:15;;;;;;;38.97;22.02;;;154.50;1996.80;;;;;;4938699;29;20038;-74
2021/10/15 03:20:41;;;;;;;34.50;20.15;;;154.50;2022.40;;;;;;4938633;29;20039;-63
2021/10/15 03:23:07;;;;;;;34.15;20.63;;;154.50;1971.20;;;;;;4938415;29;20055;-72
2021/10/15 03:25:34;;;;;;;35.40;22.73;;;154.50;2048.00;;;;;;4938111;29;20060;-61
2021/10/15 03:27:59;;;;;;;34.40;22.13;;;179.30;2022.40;;;;;;4938188;29;20047;-62
2021/10/15 03:30:26;;;;;;;39.50;23.48;;;179.40;1996.80;;;;;;4938444;29;20074;-62
2021/10/15 03:32:52;;;;;;;36.53;22.88;;;179.50;1996.80;;;;;;4938352;29;20043;-63
2021/10/15 03:35:17;;;;;;;35.65;22.77;;;179.50;1996.80;;;;;;4938380;29;20028;-68
2021/10/15 03:37:43;;;;;;;37.63;23.88;;;179.50;1996.80;;;;;;4938106;29;20035;-69
2021/10/15 03:40:10;;;;;;;36.28;23.52;;;179.40;1996.80;;;;;;4938157;29;20130;-72
2021/10/15 03:42:36;;;;;;;35.22;22.52;;;179.40;1996.80;;;;;;4938706;29;20055;-62
2021/10/15 03:45:02;;;;;;;34.92;21.20;;;179.40;1996.80;;;;;;4938283;29;20036;-61
2021/10/15 03:47:27;;;;;;;35.92;22.58;;;179.40;1996.80;;;;;;4938268;29;20084;-69
2021/10/15 03:49:53;;;;;;;33.50;21.33;;;179.40;1996.80;;;;;;4938283;29;20427;-72
2021/10/15 03:52:19;;;;;;;32.85;21.17;;;179.40;1996.80;;;;;;4938054;29;20399;-61
2021/10/15 03:54:44;;;;;;;34.58;21.17;;;179.40;1996.80;;;;;;4937135;29;20059;-63
2021/10/15 03:57:10;;;;;;;33.15;21.48;;;179.30;2022.40;;;;;;4938019;29;20036;-62
2021/10/15 03:59:36;;;;;;;35.95;22.15;;;179.40;2022.40;;;;;;4937839;29;20046;-62
2021/10/15 04:02:01;;;;;;;35.92;21.23;;;179.40;2022.40;;;;;;4937752;29;20044;-62
2021/10/15 04:04:28;;;;;;;31.63;20.63;;;179.30;2022.40;;;;;;4937748;29;20040;-62
2021/10/15 04:06:55;;;;;;;32.63;21.25;;;179.30;2022.40;;;;;;4938153;29;20434;-62
2021/10/15 04:09:21;;;;;;;35.38;20.70;;;179.30;2022.40;;;;;;4937765;29;20043;-75
2021/10/15 04:11:47;;;;;;;31.08;20.05;;;179.20;2022.40;;;;;;4937827;29;20098;-63
2021/10/15 04:14:13;;;;;;;33.55;22.05;;;179.30;2022.40;;;;;;4937638;29;20036;-62
2021/10/15 04:16:39;;;;;;;35.85;20.00;;;179.20;2022.40;;;;;;4937566;29;20036;-62
2021/10/15 04:19:04;;;;;;;31.25;20.25;;;179.20;2022.40;;;;;;4937516;29;20058;-62
2021/10/15 04:21:30;;;;;;;33.65;20.95;;;179.20;2022.40;;;;;;4937525;29;20118;-73
2021/10/15 04:23:56;;;;;;;33.95;21.65;;;179.20;2022.40;;;;;;4937420;29;20067;-62
2021/10/15 04:26:22;;;;;;;34.20;21.63;;;179.20;2022.40;;;;;;4937670;29;20100;-64
2021/10/15 04:28:47;;;;;;;33.17;19.45;;;179.20;2022.40;;;;;;4937263;29;20474;-62
2021/10/15 04:31:14;;;;;;;34.38;21.65;;;179.20;2022.40;;;;;;4937477;29;20079;-63
2021/10/15 04:33:40;;;;;;;34.92;21.60;;;179.20;2022.40;;;;;;4937108;29;20035;-71
2021/10/15 04:36:06;;;;;;;31.63;20.88;;;179.20;2022.40;;;;;;4937294;29;20035;-62
2021/10/15 04:38:32;;;;;;;35.47;22.10;;;154.50;2022.40;;;;;;4936917;29;20039;-73
2021/10/15 04:40:58;;;;;;;33.35;21.95;;;154.50;2048.00;;;;;;4937278;29;20038;-73
2021/10/15 04:43:24;;;;;;;33.60;20.67;;;154.40;2048.00;;;;;;4936929;29;20098;-73
2021/10/15 04:45:50;;;;;;;32.58;21.92;;;154.50;2048.00;;;;;;4936914;29;20039;-62
2021/10/15 04:48:15;;;;;;;35.13;22.38;;;154.40;2048.00;;;;;;4937569;29;20185;-73
2021/10/15 04:50:41;;;;;;;34.25;22.73;;;154.40;2048.00;;;;;;4937495;29;20055;-69
2021/10/15 04:53:08;;;;;;;31.50;21.77;;;154.40;2048.00;;;;;;4937431;29;20084;-70
2021/10/15 04:55:35;;;;;;;37.17;22.75;;;154.50;2022.40;;;;;;4936991;29;20090;-69
2021/10/15 04:58:01;;;;;;;37.63;23.98;;;154.50;2022.40;;;;;;4936739;29;20039;-62
2021/10/15 05:00:29;;;;;;;40.60;24.50;;;154.50;2022.40;;;;;;4936495;29;20481;-72
2021/10/15 05:02:55;;;;;;;35.67;23.38;;;154.40;2022.40;;;;;;4936759;29;20044;-63
2021/10/15 05:05:24;;;;;;;38.00;23.27;;;154.40;2022.40;;;;;;4936243;29;20066;-63
2021/10/15 05:07:50;;;;;;;41.28;25.23;;;154.40;1996.80;;;;;;4936553;29;20374;-63
2021/10/15 05:10:20;;;;;;;51.53;29.05;;;154.30;1996.80;;;;;;4936681;29;20043;-64
2021/10/15 05:12:45;;;;;;;51.88;30.42;;;154.40;2022.40;;;;;;4936490;29;20071;-70
2021/10/15 05:15:12;;;;;;;50.92;30.00;;;154.30;2022.40;;;;;;4936340;29;20027;-66
2021/10/15 05:17:39;;;;;;;44.20;26.83;;;154.30;2022.40;;;;;;4936603;29;20087;-66
2021/10/15 05:20:07;;;;;;;42.45;26.27;;;154.30;2022.40;;;;;;4936722;29;20367;-67
2021/10/15 05:22:33;;;;;;;46.17;26.45;;;154.30;2022.40;;;;;;4936449;29;20490;-67
2021/10/15 05:24:58;;;;;;;43.40;26.90;;;154.30;2022.40;;;;;;4936210;29;20051;-80
2021/10/15 05:27:24;;;;;;;49.67;27.85;;;154.30;2022.40;;;;;;4936437;29;20035;-74
2021/10/15 05:29:50;;;;;;;49.83;30.67;;;154.20;2022.40;;;;;;4936487;29;20111;-75
2021/10/15 05:32:17;;;;;;;47.33;28.80;;;154.20;2022.40;;;;;;4935741;29;20036;-71
2021/10/15 05:34:43;;;;;;;45.70;28.08;;;154.20;2048.00;;;;;;4936036;29;20039;-71
2021/10/15 05:37:09;;;;;;;52.65;29.63;;;154.10;2048.00;;;;;;4936755;29;20086;-72
2021/10/15 05:39:36;;;;;;;61.15;33.75;;;154.20;2048.00;;;;;;4936505;29;20031;-72
2021/10/15 05:42:02;;;;;;;91.05;43.38;;;154.20;2048.00;;;;;;4936472;29;20187;-69
2021/10/15 05:44:28;;;;;;;96.82;49.35;;;154.20;2048.00;;;;;;4936222;29;20036;-69
2021/10/15 05:46:54;;;;;;;90.07;46.42;;;154.20;2048.00;;;;;;4935988;29;20497;-69
2021/10/15 05:49:19;;;;;;;71.85;42.45;;;154.20;2048.00;;;;;;4936218;29;20083;-69
2021/10/15 05:51:49;;;;;;;91.05;50.70;;;154.20;2048.00;;;;;;4936200;29;20036;-69
2021/10/15 05:54:23;;;;;;;84.53;49.13;;;154.20;2048.00;;;;;;4936628;29;20032;-70
2021/10/15 05:59:32;;;;;;;69.20;41.13;;;154.30;2048.00;;;;;;4936113;29;20126;-69
2021/10/15 06:02:03;;;;;;;65.32;41.33;;;154.30;2073.60;;;;;;4917738;29;20130;-68
2021/10/15 06:15:39;;;;;;;50.22;30.05;;;154.50;2073.60;;;;;;4859527;29;20066;-72
2021/10/15 06:18:22;;;;;;;58.05;33.00;;;179.20;2073.60;;;;;;4861259;29;20441;-71
2021/10/15 06:20:51;;;;;;;65.45;35.20;;;179.20;2073.60;;;;;;4879493;29;20040;-74
2021/10/15 06:23:18;;;;;;;75.13;37.90;;;179.20;2099.20;;;;;;4858832;29;20069;-74
2021/10/15 06:25:45;;;;;;;56.72;35.53;;;179.30;2099.20;;;;;;4844932;29;20050;-70
2021/10/15 06:28:11;;;;;;;58.80;33.72;;;179.30;2073.60;;;;;;4880708;29;20205;-70
2021/10/15 06:30:38;;;;;;;51.50;33.50;;;179.30;2073.60;;;;;;4881094;29;20041;-72
2021/10/15 06:33:04;;;;;;;61.80;31.35;;;179.40;2073.60;;;;;;4880793;29;20128;-70
2021/10/15 06:35:30;;;;;;;48.03;29.52;;;179.40;2073.60;;;;;;4881053;29;20048;-70
2021/10/15 06:37:56;;;;;;;50.00;28.83;;;179.40;2073.60;;;;;;4880861;29;20071;-70
2021/10/15 06:40:22;;;;;;;41.38;26.40;;;179.40;2099.20;;;;;;4881162;29;20041;-69
2021/10/15 06:42:49;;;;;;;54.47;29.30;;;179.50;2099.20;;;;;;4880753;29;20105;-70
2021/10/15 06:45:15;;;;;;;45.83;28.50;;;179.50;2099.20;;;;;;4880447;29;20037;-70
2021/10/15 06:47:41;;;;;;;44.67;28.35;;;179.60;2099.20;;;;;;4912910;29;20039;-73
2021/10/15 06:50:07;;;;;;;40.10;26.23;;;179.60;2099.20;;;;;;4920354;29;20032;-71
2021/10/15 06:52:49;;;;;;;42.33;26.75;;;179.70;2099.20;;;;;;4920127;29;20036;-71
2021/10/15 06:55:20;;;;;;;45.47;26.95;;;179.80;2099.20;;;;;;4920529;29;20116;-78
2021/10/15 06:57:46;;;;;;;45.10;27.15;;;179.80;2099.20;;;;;;4920096;29;20035;-72
2021/10/15 07:00:13;;;;;;;48.58;27.83;;;179.80;2099.20;;;;;;4919871;29;20040;-72
2021/10/15 07:02:40;;;;;;;54.03;31.80;;;179.90;2124.80;;;;;;4919756;29;20044;-71
2021/10/15 07:05:07;;;;;;;57.13;31.83;;;180.00;2124.80;;;;;;4919813;29;20039;-71
2021/10/15 07:07:34;;;;;;;47.28;30.30;;;180.00;2124.80;;;;;;4919938;29;20478;-71
2021/10/15 07:10:00;;;;;;;47.85;27.58;;;180.10;2124.80;;;;;;4919997;29;20033;-71
2021/10/15 07:12:27;;;;;;;43.95;26.25;;;180.10;2124.80;;;;;;4919981;29;20036;-72
2021/10/15 07:14:54;;;;;;;42.90;25.33;;;204.80;2124.80;;;;;;4919759;29;20032;-70
2021/10/15 07:17:21;;;;;;;44.70;24.92;;;205.00;2150.40;;;;;;4919354;29;20052;-71
2021/10/15 07:19:47;;;;;;;39.47;24.45;;;205.10;2124.80;;;;;;4919882;29;20063;-71
2021/10/15 07:22:13;;;;;;;49.42;29.10;;;205.10;2099.20;;;;;;4919675;29;20048;-70
2021/10/15 07:24:39;;;;;;;58.20;32.45;;;205.10;2099.20;;;;;;4905290;29;20066;-71
2021/10/15 07:27:05;;;;;;;50.58;31.38;;;205.20;2099.20;;;;;;4919617;29;20062;-69
2021/10/15 07:29:30;;;;;;;58.60;34.58;;;205.20;2099.20;;;;;;4919216;29;20486;-68
2021/10/15 07:31:56;;;;;;;76.97;42.45;;;205.20;2099.20;;;;;;4920057;29;20107;-71
2021/10/15 07:34:22;;;;;;;74.05;41.20;;;205.30;2099.20;;;;;;4919337;29;20044;-71
2021/10/15 07:36:47;;;;;;;60.17;34.88;;;205.30;2124.80;;;;;;4919309;29;20028;-71
2021/10/15 07:39:13;;;;;;;54.72;33.40;;;205.40;2124.80;;;;;;4918097;29;20036;-71
2021/10/15 07:41:45;;;;;;;53.03;30.35;;;205.50;2124.80;;;;;;4919056;29;20075;-71
2021/10/15 07:44:12;;;;;;;47.47;29.23;;;205.60;2124.80;;;;;;4919076;29;20043;-71
2021/10/15 07:46:39;;;;;;;44.22;24.77;;;205.70;2124.80;;;;;;4919363;29;20028;-71
2021/10/15 07:49:06;;;;;;;38.75;24.23;;;205.70;2124.80;;;;;;4919148;29;20482;-71
2021/10/15 07:51:32;;;;;;;45.25;28.10;;;230.40;2099.20;;;;;;4919229;29;20036;-68
2021/10/15 07:53:57;;;;;;;48.03;30.58;;;230.50;2099.20;;;;;;4919210;29;20175;-72
2021/10/15 07:56:23;;;;;;;61.13;39.10;;;230.50;2073.60;;;;;;4919264;29;20103;-72
2021/10/15 07:58:49;;;;;;;47.88;32.88;;;230.60;2099.20;;;;;;4918935;29;20040;-72
2021/10/15 08:01:15;;;;;;;42.85;30.30;;;230.70;2073.60;;;;;;4918230;29;20489;-70
2021/10/15 08:03:42;;;;;;;43.72;25.65;;;230.70;2073.60;;;;;;4918755;29;20056;-72
2021/10/15 08:06:09;;;;;;;53.15;25.40;;;230.90;2099.20;;;;;;4919071;29;20040;-72
2021/10/15 08:08:35;;;;;;;39.35;24.10;;;230.90;2073.60;;;;;;4918669;29;20080;-72
2021/10/15 08:11:01;;;;;;;39.42;21.42;;;231.10;2073.60;;;;;;4918678;29;20092;-72
2021/10/15 08:13:27;;;;;;;30.27;19.40;;;231.10;2048.00;;;;;;4918561;29;20097;-72
2021/10/15 08:15:53;;;;;;;38.78;20.60;;;231.20;2048.00;;;;;;4918505;29;20036;-71
2021/10/15 08:18:19;;;;;;;33.05;19.90;;;256.00;2048.00;;;;;;4918767;29;20039;-71
2021/10/15 08:20:45;;;;;;;36.58;19.23;;;256.20;2073.60;;;;;;4917244;29;20501;-72
2021/10/15 08:23:11;;;;;;;29.67;18.88;;;256.40;2124.80;;;;;;4918480;29;20048;-73
2021/10/15 08:25:39;;;;;;;36.35;19.67;;;256.50;2073.60;;;;;;4932546;29;20118;-69
2021/10/15 08:28:05;;;;;;;40.47;20.73;;;256.70;2150.40;;;;;;4919755;29;20131;-71
2021/10/15 08:30:31;;;;;;;31.55;19.27;;;256.90;2124.80;;;;;;4937107;29;20104;-72
2021/10/15 08:32:58;;;;;;;33.25;19.60;;;256.90;2022.40;;;;;;4937175;29;20035;-71
2021/10/15 08:35:25;;;;;;;34.35;20.02;;;281.60;2022.40;;;;;;4937143;29;20470;-73
2021/10/15 08:37:51;;;;;;;29.20;19.58;;;281.60;1996.80;;;;;;4937171;29;20042;-71
2021/10/15 08:40:17;;;;;;;32.85;19.55;;;281.70;2022.40;;;;;;4936920;29;20034;-70
2021/10/15 08:42:52;;;;;;;28.00;19.52;;;281.70;1996.80;;;;;;4936859;29;20047;-70
2021/10/15 08:45:29;;;;;;;31.58;19.70;;;281.70;1996.80;;;;;;4937100;29;20484;-69
2021/10/15 08:47:56;;;;;;;31.67;20.63;;;281.80;1996.80;;;;;;4936792;29;20094;-70
2021/10/15 08:50:22;;;;;;;27.65;18.83;;;281.80;1996.80;;;;;;4936590;29;20067;-69
2021/10/15 08:52:48;;;;;;;25.42;18.58;;;281.90;1996.80;;;;;;4936955;29;20119;-70
2021/10/15 08:55:15;;;;;;;31.83;21.52;;;281.90;1996.80;;;;;;4919806;29;20039;-70
2021/10/15 08:57:51;;;;;;;29.58;20.45;;;282.00;2022.40;;;;;;4936888;29;20028;-71
2021/10/15 09:00:22;;;;;;;33.85;22.48;;;282.10;2022.40;;;;;;4936695;29;20040;-70
2021/10/15 09:03:11;;;;;;;30.85;20.83;;;282.20;1996.80;;;;;;4936741;29;20043;-70
2021/10/15 09:05:41;;;;;;;31.25;21.40;;;282.30;2022.40;;;;;;4937214;29;20466;-70
2021/10/15 09:08:07;;;;;;;41.60;28.35;;;282.40;1996.80;;;;;;4936471;29;20032;-70
2021/10/15 09:10:34;;;;;;;48.53;33.13;;;282.40;1996.80;;;;;;4936679;29;20363;-70
2021/10/15 09:13:10;;;;;;;50.90;36.38;;;282.40;1996.80;;;;;;4936525;29;20038;-70
2021/10/15 09:15:37;;;;;;;41.90;29.27;;;282.50;1996.80;;;;;;4936569;29;20042;-71
2021/10/15 09:18:11;;;;;;;35.28;26.02;;;307.20;1971.20;;;;;;4936925;29;20470;-70
2021/10/15 09:20:37;;;;;;;33.00;21.15;;;307.20;1971.20;;;;;;4935956;29;20051;-70
2021/10/15 09:23:03;;;;;;;33.60;20.30;;;307.20;1971.20;;;;;;4936374;29;20390;-70
2021/10/15 09:25:38;;;;;;;29.38;18.63;;;307.30;1971.20;;;;;;4936043;29;20131;-69
2021/10/15 09:28:19;;;;;;;36.47;20.90;;;307.40;1945.60;;;;;;4936478;29;20047;-67
2021/10/15 09:30:48;;;;;;;35.70;21.70;;;307.50;1996.80;;;;;;4936621;29;20046;-69
2021/10/15 09:33:18;;;;;;;32.08;22.88;;;307.70;1971.20;;;;;;4936284;29;20031;-70
2021/10/15 09:35:44;;;;;;;27.80;18.85;;;307.70;1971.20;;;;;;4936701;29;20046;-69
2021/10/15 09:38:10;;;;;;;27.40;19.10;;;307.90;1945.60;;;;;;4936491;29;20111;-70
2021/10/15 09:40:42;;;;;;;28.05;18.25;;;307.80;1920.00;;;;;;4936452;29;20028;-69
2021/10/15 09:43:10;;;;;;;27.42;18.73;;;307.90;1920.00;;;;;;4936456;29;20042;-70
2021/10/15 09:45:39;;;;;;;28.60;18.58;;;308.00;1920.00;;;;;;4936480;29;20402;-70
2021/10/15 09:48:21;;;;;;;25.58;17.90;;;308.00;1894.40;;;;;;4936188;29;20043;-70
2021/10/15 09:50:48;;;;;;;28.52;18.55;;;308.00;1894.40;;;;;;4936372;29;20027;-71
2021/10/15 09:53:13;;;;;;;26.85;16.67;;;308.00;1894.40;;;;;;4938885;29;20055;-67
2021/10/15 09:55:41;;;;;;;32.53;15.40;;;308.10;1868.80;;;;;;4940308;29;20074;-69
2021/10/15 09:58:13;;;;;;;21.70;14.00;;;332.80;1894.40;;;;;;4940093;29;20098;-70
2021/10/15 10:00:39;;;;;;;21.42;14.57;;;332.80;1894.40;;;;;;4940009;29;20032;-71
2021/10/15 10:03:05;;;;;;;24.30;14.07;;;332.80;1868.80;;;;;;4940024;29;20138;-71
2021/10/15 10:05:31;;;;;;;21.90;14.73;;;332.80;1868.80;;;;;;4940002;29;20035;-72
2021/10/15 10:07:58;;;;;;;23.83;15.25;;;332.80;1868.80;;;;;;4939976;29;20039;-71
2021/10/15 10:10:27;;;;;;;29.75;18.38;;;332.80;1868.80;;;;;;4940007;29;20035;-71
2021/10/15 10:12:54;;;;;;;27.52;18.63;;;332.80;1894.40;;;;;;4939782;29;20159;-69
2021/10/15 10:15:26;;;;;;;27.67;18.15;;;332.80;1894.40;;;;;;4939529;29;20036;-71
2021/10/15 10:18:02;;;;;;;25.05;16.88;;;332.80;1868.80;;;;;;4939727;29;20039;-71
2021/10/15 10:20:32;;;;;;;28.58;16.10;;;332.90;1868.80;;;;;;4939611;29;20035;-70
2021/10/15 10:23:10;;;;;;;25.00;15.10;;;332.90;1868.80;;;;;;4939591;29;20135;-71
2021/10/15 10:25:37;;;;;;;21.33;14.35;;;332.90;1843.20;;;;;;4939281;29;20060;-69
2021/10/15 10:28:19;;;;;;;19.88;13.93;;;332.90;1868.80;;;;;;4939649;29;20694;-70
2021/10/15 10:30:48;;;;;;;21.15;13.80;;;333.00;1843.20;;;;;;4939396;29;20032;-72
2021/10/15 10:33:14;;;;;;;16.83;12.32;;;333.00;1868.80;;;;;;4939534;29;20110;-71
2021/10/15 10:35:43;;;;;;;16.05;10.63;;;333.00;1868.80;;;;;;4938960;29;20035;-71
2021/10/15 10:38:20;;;;;;;19.95;10.40;;;333.00;1843.20;;;;;;4939280;29;20072;-71
2021/10/15 10:41:16;;;;;;;15.27;9.75;;;333.10;1843.20;;;;;;4939679;29;20136;-70
2021/10/15 10:43:44;;;;;;;13.65;9.25;;;333.10;1817.60;;;;;;4880385;29;20044;-70
2021/10/15 10:46:13;;;;;;;14.30;9.27;;;333.20;1817.60;;;;;;4864524;29;20069;-71
2021/10/15 10:48:51;;;;;;;16.25;8.75;;;333.20;1817.60;;;;;;4880741;29;20044;-71
2021/10/15 10:51:27;;;;;;;19.55;9.50;;;333.20;1792.00;;;;;;4880386;29;20040;-71
2021/10/15 10:54:07;;;;;;;16.52;8.75;;;333.30;1792.00;;;;;;4864987;29;20072;-70
2021/10/15 10:56:38;;;;;;;20.08;11.10;;;333.30;1792.00;;;;;;4880676;29;20115;-69
2021/10/15 10:59:20;;;;;;;25.98;12.10;;;333.30;1817.60;;;;;;4880363;29;20052;-71
2021/10/15 11:02:03;;;;;;;19.67;11.52;;;333.30;1868.80;;;;;;4880403;29;20037;-71
2021/10/15 11:04:43;;;;;;;19.77;11.40;;;333.30;1817.60;;;;;;4879909;29;20034;-71
2021/10/15 11:07:19;;;;;;;27.33;11.98;;;333.30;1817.60;;;;;;4880509;29;20439;-79
2021/10/15 11:09:49;;;;;;;26.00;13.63;;;333.30;1817.60;;;;;;4880418;29;20405;-71
2021/10/15 11:12:26;;;;;;;19.70;14.60;;;333.30;1843.20;;;;;;4864533;29;20039;-72
2021/10/15 11:14:55;;;;;;;18.80;13.30;;;333.30;1843.20;;;;;;4880236;29;20525;-71
2021/10/15 11:17:37;;;;;;;22.67;14.65;;;333.30;1817.60;;;;;;4880119;29;20044;-71
2021/10/15 11:20:20;;;;;;;27.08;14.30;;;333.30;1817.60;;;;;;4892288;29;20039;-71
2021/10/15 11:23:24;;;;;;;25.58;15.23;;;333.30;1843.20;;;;;;4938760;29;20056;-72
2021/10/15 11:25:49;;;;;;;21.73;13.40;;;333.30;1843.20;;;;;;4879979;29;20045;-71
2021/10/15 11:28:20;;;;;;;25.23;13.73;;;333.20;1843.20;;;;;;4879800;29;20044;-72
2021/10/15 11:30:52;;;;;;;25.63;11.98;;;333.20;1843.20;;;;;;4879342;29;20037;-72
2021/10/15 11:33:20;;;;;;;21.85;11.90;;;333.30;1843.20;;;;;;4879493;29;20127;-71
2021/10/15 11:35:50;;;;;;;20.77;13.48;;;333.30;1868.80;;;;;;4879838;29;20052;-71
2021/10/15 11:38:21;;;;;;;20.85;12.75;;;333.20;1868.80;;;;;;4879674;29;20069;-72
2021/10/15 11:40:51;;;;;;;27.73;12.50;;;333.20;1843.20;;;;;;4878345;29;20160;-67
2021/10/15 11:43:27;;;;;;;26.67;11.93;;;333.20;1868.80;;;;;;4877961;29;20048;-72
2021/10/15 11:45:57;;;;;;;22.17;11.95;;;333.20;1843.20;;;;;;4876045;29;20908;-68
2021/10/15 11:48:34;;;;;;;21.15;12.20;;;333.20;1894.40;;;;;;4877459;29;20226;-71
2021/10/15 11:51:08;;;;;;;24.80;12.20;;;333.20;1868.80;;;;;;4877627;29;20053;-70
2021/10/15 11:53:38;;;;;;;19.98;12.07;;;333.20;1868.80;;;;;;4875571;29;20061;-74
2021/10/15 11:56:12;;;;;;;25.73;11.85;;;333.20;1868.80;;;;;;4877972;29;20044;-72
2021/10/15 11:58:43;;;;;;;39.83;12.85;;;333.20;1868.80;;;;;;4874187;29;20048;-74
2021/10/15 12:01:12;;;;;;;35.75;14.48;;;333.30;1868.80;;;;;;4936085;29;20474;-71
2021/10/15 12:03:50;;;;;;;26.00;13.50;;;333.30;1894.40;;;;;;4931279;29;20048;-69
2021/10/15 12:06:40;;;;;;;31.80;16.05;;;333.30;1894.40;;;;;;4936202;29;20063;-69
2021/10/15 12:09:11;;;;;;;24.55;14.32;;;333.30;1868.80;;;;;;4933297;29;20040;-70
2021/10/15 12:11:40;;;;;;;28.30;16.45;;;333.30;1868.80;;;;;;4931247;29;20056;-71
2021/10/15 12:14:07;;;;;;;28.55;16.35;;;333.30;1868.80;;;;;;4935852;29;20038;-70
2021/10/15 12:16:42;;;;;;;35.63;17.52;;;333.20;1868.80;;;;;;4935640;29;20088;-70